createdAt,value
2022-11-29T00:00:21.962Z,7.99
2022-11-29T00:01:21.955Z,7.99
2022-11-29T00:02:22.045Z,7.99
2022-11-29T00:03:21.972Z,7.96
2022-11-29T00:04:21.919Z,7.96
2022-11-29T00:05:21.908Z,7.96
2022-11-29T00:06:21.856Z,7.95
2022-11-29T00:07:21.974Z,7.94
2022-11-29T00:08:21.880Z,7.94
2022-11-29T00:09:21.838Z,7.94
2022-11-29T00:10:21.826Z,7.92
2022-11-29T00:11:21.802Z,7.94
2022-11-29T00:12:21.780Z,7.94
2022-11-29T00:13:21.825Z,7.94
2022-11-29T00:14:21.783Z,7.95
2022-11-29T00:15:21.776Z,7.94
2022-11-29T00:16:21.808Z,7.94
2022-11-29T00:17:21.726Z,7.94
2022-11-29T00:18:21.697Z,7.96
2022-11-29T00:19:21.763Z,7.96
2022-11-29T00:20:21.672Z,7.96
2022-11-29T00:21:21.697Z,7.95
2022-11-29T00:22:21.648Z,7.96
2022-11-29T00:23:21.666Z,7.96
2022-11-29T00:24:21.651Z,7.96
2022-11-29T00:25:21.634Z,7.95
2022-11-29T00:26:21.641Z,7.95
2022-11-29T00:27:21.622Z,7.94
2022-11-29T00:28:21.613Z,7.95
2022-11-29T00:29:21.623Z,7.95
2022-11-29T00:30:21.573Z,7.96
2022-11-29T00:31:21.571Z,7.95
2022-11-29T00:32:21.526Z,7.96
2022-11-29T00:33:21.563Z,7.96
2022-11-29T00:34:21.532Z,7.96
2022-11-29T00:35:21.493Z,7.99
2022-11-29T00:36:21.470Z,7.99
2022-11-29T00:37:21.498Z,7.96
2022-11-29T00:38:21.492Z,7.99
2022-11-29T00:39:21.492Z,7.99
2022-11-29T00:40:21.481Z,7.99
2022-11-29T00:41:21.456Z,7.96
2022-11-29T00:42:21.391Z,7.96
2022-11-29T00:43:21.419Z,7.99
2022-11-29T00:44:21.402Z,7.96
2022-11-29T00:45:21.376Z,7.99
2022-11-29T00:46:21.391Z,7.99
2022-11-29T00:47:21.380Z,7.99
2022-11-29T00:48:21.325Z,8.00
2022-11-29T00:49:21.323Z,7.99
2022-11-29T00:50:21.294Z,7.96
2022-11-29T00:51:21.316Z,7.96
2022-11-29T00:52:21.261Z,7.96
2022-11-29T00:53:21.299Z,7.95
2022-11-29T00:54:21.550Z,7.96
2022-11-29T00:55:21.266Z,7.96
2022-11-29T00:56:21.272Z,7.96
2022-11-29T00:57:21.211Z,7.96
2022-11-29T00:58:21.212Z,7.99
2022-11-29T00:59:21.200Z,7.96
2022-11-29T01:00:21.161Z,7.99
2022-11-29T01:01:21.207Z,7.96
2022-11-29T01:02:21.233Z,7.96
2022-11-29T01:03:21.166Z,7.96
2022-11-29T01:04:21.126Z,7.95
2022-11-29T01:05:21.140Z,7.96
2022-11-29T01:06:21.118Z,7.95
2022-11-29T01:07:21.148Z,7.99
2022-11-29T01:08:21.060Z,7.96
2022-11-29T01:09:21.079Z,7.99
2022-11-29T01:10:21.030Z,7.99
2022-11-29T01:11:21.058Z,7.96
2022-11-29T01:12:21.031Z,7.96
2022-11-29T01:13:21.017Z,7.99
2022-11-29T01:14:21.047Z,7.96
2022-11-29T01:15:21.031Z,7.99
2022-11-29T01:16:21.042Z,7.95
2022-11-29T01:17:20.988Z,7.99
2022-11-29T01:18:20.941Z,7.96
2022-11-29T01:19:21.016Z,7.96
2022-11-29T01:20:20.948Z,7.95
2022-11-29T01:21:20.907Z,7.94
2022-11-29T01:22:20.905Z,7.94
2022-11-29T01:23:20.880Z,7.95
2022-11-29T01:24:20.855Z,7.95
2022-11-29T01:25:20.893Z,7.95
2022-11-29T01:26:20.849Z,7.95
2022-11-29T01:27:20.826Z,7.96
2022-11-29T01:28:20.840Z,7.96
2022-11-29T01:29:20.817Z,7.99
2022-11-29T01:30:20.845Z,7.99
2022-11-29T01:31:20.777Z,7.96
2022-11-29T01:32:20.746Z,7.99
2022-11-29T01:33:20.746Z,7.99
2022-11-29T01:34:20.753Z,7.99
2022-11-29T01:35:20.745Z,7.99
2022-11-29T01:36:20.697Z,7.99
2022-11-29T01:37:20.726Z,7.95
2022-11-29T01:38:20.701Z,7.96
2022-11-29T01:39:20.674Z,7.96
2022-11-29T01:40:20.690Z,7.96
2022-11-29T01:41:20.672Z,7.99
2022-11-29T01:42:20.642Z,7.95
2022-11-29T01:43:20.647Z,7.96
2022-11-29T01:44:20.630Z,7.99
2022-11-29T01:45:20.625Z,7.99
2022-11-29T01:46:20.663Z,7.96
2022-11-29T01:47:20.582Z,7.96
2022-11-29T01:48:20.570Z,7.96
2022-11-29T01:49:20.553Z,7.95
2022-11-29T01:50:20.541Z,7.96
2022-11-29T01:51:20.549Z,7.94
2022-11-29T01:52:20.495Z,7.95
2022-11-29T01:53:20.548Z,7.96
2022-11-29T01:54:20.474Z,7.95
2022-11-29T01:55:20.484Z,7.99
2022-11-29T01:56:20.499Z,7.96
2022-11-29T01:57:20.472Z,8.00
2022-11-29T01:58:20.419Z,7.99
2022-11-29T01:59:20.418Z,8.00
2022-11-29T02:00:20.411Z,8.00
2022-11-29T02:01:20.495Z,8.02
2022-11-29T02:02:20.392Z,8.00
2022-11-29T02:03:20.361Z,8.02
2022-11-29T02:04:20.344Z,8.00
2022-11-29T02:05:20.383Z,8.00
2022-11-29T02:06:20.310Z,8.02
2022-11-29T02:07:20.367Z,8.02
2022-11-29T02:08:20.317Z,8.00
2022-11-29T02:09:20.291Z,8.00
2022-11-29T02:10:20.306Z,8.02
2022-11-29T02:11:20.296Z,8.00
2022-11-29T02:12:20.265Z,8.00
2022-11-29T02:13:20.236Z,8.00
2022-11-29T02:14:20.236Z,7.99
2022-11-29T02:15:20.228Z,8.00
2022-11-29T02:16:20.246Z,7.99
2022-11-29T02:17:20.217Z,7.95
2022-11-29T02:18:20.178Z,7.95
2022-11-29T02:19:20.187Z,7.95
2022-11-29T02:20:20.174Z,7.96
2022-11-29T02:21:20.164Z,7.96
2022-11-29T02:22:20.136Z,7.99
2022-11-29T02:23:20.137Z,7.99
2022-11-29T02:24:20.114Z,7.99
2022-11-29T02:25:20.096Z,7.99
2022-11-29T02:26:20.056Z,7.99
2022-11-29T02:27:20.090Z,7.99
2022-11-29T02:28:20.074Z,8.00
2022-11-29T02:29:20.062Z,8.00
2022-11-29T02:30:20.043Z,8.00
2022-11-29T02:31:20.056Z,8.00
2022-11-29T02:32:20.029Z,8.02
2022-11-29T02:33:19.984Z,8.02
2022-11-29T02:34:20.011Z,8.03
2022-11-29T02:35:19.986Z,8.03
2022-11-29T02:36:19.943Z,8.03
2022-11-29T02:37:19.919Z,8.03
2022-11-29T02:38:19.932Z,8.03
2022-11-29T02:39:19.891Z,8.03
2022-11-29T02:40:19.917Z,8.03
2022-11-29T02:41:19.891Z,8.03
2022-11-29T02:42:19.873Z,8.04
2022-11-29T02:43:19.873Z,8.03
2022-11-29T02:44:19.833Z,8.03
2022-11-29T02:45:19.843Z,8.03
2022-11-29T02:46:19.853Z,8.02
2022-11-29T02:47:19.828Z,8.03
2022-11-29T02:48:19.782Z,8.03
2022-11-29T02:49:26.881Z,8.03
2022-11-29T02:50:20.055Z,8.04
2022-11-29T02:51:27.321Z,8.03
2022-11-29T02:52:19.790Z,8.04
2022-11-29T02:53:19.765Z,8.06
2022-11-29T02:54:19.781Z,8.06
2022-11-29T02:55:19.704Z,8.06
2022-11-29T02:56:19.735Z,8.07
2022-11-29T02:57:19.691Z,8.07
2022-11-29T02:58:19.706Z,8.06
2022-11-29T02:59:19.694Z,8.07
2022-11-29T03:00:19.648Z,8.07
2022-11-29T03:01:19.668Z,8.09
2022-11-29T03:02:19.655Z,8.07
2022-11-29T03:03:19.605Z,8.09
2022-11-29T03:04:19.656Z,8.10
2022-11-29T03:05:19.583Z,8.09
2022-11-29T03:06:19.600Z,8.10
2022-11-29T03:07:19.593Z,8.12
2022-11-29T03:08:19.544Z,8.09
2022-11-29T03:09:19.542Z,8.09
2022-11-29T03:10:19.506Z,8.09
2022-11-29T03:11:19.512Z,8.07
2022-11-29T03:12:19.532Z,8.07
2022-11-29T03:13:19.455Z,8.10
2022-11-29T03:14:19.475Z,8.09
2022-11-29T03:15:19.471Z,8.07
2022-11-29T03:16:19.424Z,8.09
2022-11-29T03:17:19.413Z,8.07
2022-11-29T03:18:19.436Z,8.09
2022-11-29T03:19:19.441Z,8.09
2022-11-29T03:20:19.382Z,8.07
2022-11-29T03:21:19.412Z,8.10
2022-11-29T03:22:19.379Z,8.09
2022-11-29T03:23:19.344Z,8.10
2022-11-29T03:24:19.369Z,8.09
2022-11-29T03:25:19.316Z,8.12
2022-11-29T03:26:19.304Z,8.12
2022-11-29T03:27:19.295Z,8.09
2022-11-29T03:28:19.304Z,8.09
2022-11-29T03:29:19.281Z,8.09
2022-11-29T03:30:19.263Z,8.10
2022-11-29T03:31:19.422Z,8.10
2022-11-29T03:32:19.260Z,8.09
2022-11-29T03:33:19.219Z,8.10
2022-11-29T03:34:19.233Z,8.10
2022-11-29T03:35:19.217Z,8.10
2022-11-29T03:36:19.190Z,8.10
2022-11-29T03:37:19.199Z,8.10
2022-11-29T03:38:19.177Z,8.10
2022-11-29T03:39:19.148Z,8.10
2022-11-29T03:40:19.120Z,8.10
2022-11-29T03:41:19.140Z,8.09
2022-11-29T03:42:19.145Z,8.12
2022-11-29T03:43:19.068Z,8.10
2022-11-29T03:44:19.137Z,8.12
2022-11-29T03:45:19.050Z,8.13
2022-11-29T03:46:19.105Z,8.12
2022-11-29T03:47:19.037Z,8.10
2022-11-29T03:48:19.055Z,8.12
2022-11-29T03:49:19.035Z,8.10
2022-11-29T03:50:18.991Z,8.10
2022-11-29T03:51:18.978Z,8.12
2022-11-29T03:52:18.988Z,8.12
2022-11-29T03:53:18.988Z,8.13
2022-11-29T03:54:18.968Z,8.13
2022-11-29T03:55:18.927Z,8.10
2022-11-29T03:56:18.906Z,8.10
2022-11-29T03:57:18.914Z,8.10
2022-11-29T03:58:18.887Z,8.10
2022-11-29T03:59:18.887Z,8.10
2022-11-29T04:00:18.892Z,8.10
2022-11-29T04:01:18.929Z,8.12
2022-11-29T04:02:18.898Z,8.10
2022-11-29T04:03:18.874Z,8.10
2022-11-29T04:04:18.851Z,8.10
2022-11-29T04:05:18.823Z,8.10
2022-11-29T04:06:18.776Z,8.10
2022-11-29T04:07:18.832Z,8.09
2022-11-29T04:08:18.751Z,8.10
2022-11-29T04:09:18.782Z,8.12
2022-11-29T04:10:18.757Z,8.13
2022-11-29T04:11:18.717Z,8.14
2022-11-29T04:12:18.706Z,8.14
2022-11-29T04:13:18.721Z,8.14
2022-11-29T04:14:18.724Z,8.14
2022-11-29T04:15:18.721Z,8.13
2022-11-29T04:16:18.708Z,8.14
2022-11-29T04:17:18.678Z,8.14
2022-11-29T04:18:18.624Z,8.17
2022-11-29T04:19:18.677Z,8.14
2022-11-29T04:20:18.637Z,8.14
2022-11-29T04:21:18.601Z,8.14
2022-11-29T04:22:18.602Z,8.14
2022-11-29T04:23:18.572Z,8.14
2022-11-29T04:24:18.582Z,8.14
2022-11-29T04:25:18.550Z,8.17
2022-11-29T04:26:18.522Z,8.17
2022-11-29T04:27:18.533Z,8.17
2022-11-29T04:28:18.522Z,8.20
2022-11-29T04:29:18.541Z,8.18
2022-11-29T04:30:18.472Z,8.20
2022-11-29T04:31:18.568Z,8.21
2022-11-29T04:32:18.474Z,8.20
2022-11-29T04:33:18.469Z,8.21
2022-11-29T04:34:18.453Z,8.24
2022-11-29T04:35:18.421Z,8.22
2022-11-29T04:36:18.420Z,8.22
2022-11-29T04:37:18.391Z,8.22
2022-11-29T04:38:18.398Z,8.22
2022-11-29T04:39:18.377Z,8.22
2022-11-29T04:40:18.395Z,8.24
2022-11-29T04:41:18.366Z,8.22
2022-11-29T04:42:18.320Z,8.24
2022-11-29T04:43:18.337Z,8.24
2022-11-29T04:44:18.299Z,8.22
2022-11-29T04:45:18.289Z,8.24
2022-11-29T04:46:18.365Z,8.24
2022-11-29T04:47:18.295Z,8.25
2022-11-29T04:48:18.282Z,8.25
2022-11-29T04:49:18.254Z,8.27
2022-11-29T04:50:18.246Z,8.25
2022-11-29T04:51:18.243Z,8.25
2022-11-29T04:52:18.215Z,8.24
2022-11-29T04:53:18.197Z,8.25
2022-11-29T04:54:18.185Z,8.25
2022-11-29T04:55:24.994Z,8.25
2022-11-29T04:56:19.149Z,8.24
2022-11-29T04:57:18.193Z,8.24
2022-11-29T04:58:18.114Z,8.24
2022-11-29T04:59:18.149Z,8.24
2022-11-29T05:00:18.088Z,8.25
2022-11-29T05:01:18.162Z,8.25
2022-11-29T05:02:18.122Z,8.25
2022-11-29T05:03:18.081Z,8.25
2022-11-29T05:04:18.067Z,8.27
2022-11-29T05:05:18.045Z,8.25
2022-11-29T05:06:18.042Z,8.27
2022-11-29T05:07:18.100Z,8.25
2022-11-29T05:08:18.041Z,8.27
2022-11-29T05:09:18.008Z,8.25
2022-11-29T05:10:17.979Z,8.27
2022-11-29T05:11:22.082Z,8.25
2022-11-29T05:12:18.934Z,8.25
2022-11-29T05:13:17.952Z,8.24
2022-11-29T05:14:17.934Z,8.22
2022-11-29T05:15:17.954Z,8.22
2022-11-29T05:16:17.935Z,8.22
2022-11-29T05:17:17.893Z,8.22
2022-11-29T05:18:17.899Z,8.22
2022-11-29T05:19:17.892Z,8.24
2022-11-29T05:20:17.859Z,8.25
2022-11-29T05:21:17.833Z,8.24
2022-11-29T05:22:17.838Z,8.24
2022-11-29T05:23:17.834Z,8.25
2022-11-29T05:24:17.858Z,8.25
2022-11-29T05:25:17.774Z,8.24
2022-11-29T05:26:17.776Z,8.24
2022-11-29T05:27:17.777Z,8.24
2022-11-29T05:28:17.751Z,8.24
2022-11-29T05:29:17.751Z,8.24
2022-11-29T05:30:17.701Z,8.25
2022-11-29T05:31:17.758Z,8.24
2022-11-29T05:32:17.690Z,8.24
2022-11-29T05:33:17.725Z,8.25
2022-11-29T05:34:17.717Z,8.24
2022-11-29T05:35:17.678Z,8.25
2022-11-29T05:36:17.647Z,8.25
2022-11-29T05:37:17.656Z,8.25
2022-11-29T05:38:17.599Z,8.24
2022-11-29T05:39:17.642Z,8.24
2022-11-29T05:40:17.615Z,8.24
2022-11-29T05:41:17.626Z,8.24
2022-11-29T05:42:17.607Z,8.24
2022-11-29T05:43:17.585Z,8.24
2022-11-29T05:44:17.555Z,8.22
2022-11-29T05:45:17.554Z,8.24
2022-11-29T05:46:17.555Z,8.24
2022-11-29T05:47:17.547Z,8.24
2022-11-29T05:48:17.495Z,8.24
2022-11-29T05:49:17.536Z,8.25
2022-11-29T05:50:17.473Z,8.24
2022-11-29T05:51:17.479Z,8.24
2022-11-29T05:52:17.449Z,8.25
2022-11-29T05:53:17.447Z,8.25
2022-11-29T05:54:17.427Z,8.27
2022-11-29T05:55:17.434Z,8.25
2022-11-29T05:56:17.375Z,8.25
2022-11-29T05:57:17.423Z,8.25
2022-11-29T05:58:17.356Z,8.22
2022-11-29T05:59:17.414Z,8.27
2022-11-29T06:00:17.314Z,8.24
2022-11-29T06:01:17.345Z,8.25
2022-11-29T06:02:17.359Z,8.27
2022-11-29T06:03:17.358Z,8.27
2022-11-29T06:04:17.306Z,8.27
2022-11-29T06:05:17.292Z,8.25
2022-11-29T06:06:17.284Z,8.25
2022-11-29T06:07:17.315Z,8.27
2022-11-29T06:08:17.263Z,8.25
2022-11-29T06:09:17.252Z,8.25
2022-11-29T06:10:17.186Z,8.27
2022-11-29T06:11:17.217Z,8.27
2022-11-29T06:12:20.997Z,8.25
2022-11-29T06:13:17.174Z,8.25
2022-11-29T06:14:17.164Z,8.25
2022-11-29T06:15:17.202Z,8.27
2022-11-29T06:16:17.191Z,8.27
2022-11-29T06:17:17.116Z,8.25
2022-11-29T06:18:17.113Z,8.25
2022-11-29T06:19:17.094Z,8.25
2022-11-29T06:20:17.084Z,8.27
2022-11-29T06:21:17.089Z,8.25
2022-11-29T06:22:17.035Z,8.24
2022-11-29T06:23:17.042Z,8.24
2022-11-29T06:24:19.472Z,8.25
2022-11-29T06:25:18.039Z,8.25
2022-11-29T06:26:17.040Z,8.25
2022-11-29T06:27:16.981Z,8.24
2022-11-29T06:28:17.021Z,8.25
2022-11-29T06:29:16.961Z,8.25
2022-11-29T06:30:16.957Z,8.27
2022-11-29T06:31:16.997Z,8.25
2022-11-29T06:32:16.928Z,8.27
2022-11-29T06:33:16.949Z,8.27
2022-11-29T06:34:16.916Z,8.28
2022-11-29T06:35:16.926Z,8.27
2022-11-29T06:36:16.872Z,8.25
2022-11-29T06:37:16.876Z,8.27
2022-11-29T06:38:16.860Z,8.25
2022-11-29T06:39:16.895Z,8.27
2022-11-29T06:40:16.804Z,8.27
2022-11-29T06:41:16.830Z,8.27
2022-11-29T06:42:16.809Z,8.28
2022-11-29T06:43:16.806Z,8.28
2022-11-29T06:44:16.795Z,8.28
2022-11-29T06:45:16.748Z,8.29
2022-11-29T06:46:16.817Z,8.28
2022-11-29T06:47:16.727Z,8.28
2022-11-29T06:48:16.690Z,8.28
2022-11-29T06:49:16.763Z,8.28
2022-11-29T06:50:16.678Z,8.29
2022-11-29T06:51:16.719Z,8.29
2022-11-29T06:52:16.693Z,8.29
2022-11-29T06:53:16.684Z,8.28
2022-11-29T06:54:16.666Z,8.27
2022-11-29T06:55:16.655Z,8.28
2022-11-29T06:56:16.643Z,8.28
2022-11-29T06:57:16.626Z,8.28
2022-11-29T06:58:16.602Z,8.27
2022-11-29T06:59:16.601Z,8.27
2022-11-29T07:00:16.566Z,8.27
2022-11-29T07:01:16.602Z,8.27
2022-11-29T07:02:16.628Z,8.27
2022-11-29T07:03:16.555Z,8.27
2022-11-29T07:04:16.513Z,8.25
2022-11-29T07:05:16.543Z,8.27
2022-11-29T07:06:16.474Z,8.25
2022-11-29T07:07:16.532Z,8.27
2022-11-29T07:08:16.445Z,8.25
2022-11-29T07:09:16.476Z,8.24
2022-11-29T07:10:16.462Z,8.24
2022-11-29T07:11:16.449Z,8.24
2022-11-29T07:12:16.421Z,8.24
2022-11-29T07:13:16.403Z,8.24
2022-11-29T07:14:16.389Z,8.25
2022-11-29T07:15:16.416Z,8.24
2022-11-29T07:16:16.385Z,8.24
2022-11-29T07:17:16.372Z,8.24
2022-11-29T07:18:16.319Z,8.24
2022-11-29T07:19:16.349Z,8.24
2022-11-29T07:20:16.328Z,8.22
2022-11-29T07:21:16.319Z,8.22
2022-11-29T07:22:16.301Z,8.22
2022-11-29T07:23:16.298Z,8.22
2022-11-29T07:24:16.243Z,8.22
2022-11-29T07:25:16.337Z,8.21
2022-11-29T07:26:16.247Z,8.21
2022-11-29T07:27:16.246Z,8.20
2022-11-29T07:28:16.199Z,8.21
2022-11-29T07:29:16.189Z,8.20
2022-11-29T07:30:16.206Z,8.22
2022-11-29T07:31:16.211Z,8.21
2022-11-29T07:32:16.140Z,8.21
2022-11-29T07:33:16.165Z,8.21
2022-11-29T07:34:16.136Z,8.21
2022-11-29T07:35:16.150Z,8.22
2022-11-29T07:36:16.091Z,8.21
2022-11-29T07:37:16.116Z,8.21
2022-11-29T07:38:16.069Z,8.21
2022-11-29T07:39:16.086Z,8.20
2022-11-29T07:40:16.086Z,8.20
2022-11-29T07:41:16.041Z,8.20
2022-11-29T07:42:16.044Z,8.20
2022-11-29T07:43:16.019Z,8.20
2022-11-29T07:44:15.988Z,8.20
2022-11-29T07:45:16.024Z,8.18
2022-11-29T07:46:16.066Z,8.20
2022-11-29T07:47:15.966Z,8.20
2022-11-29T07:48:15.938Z,8.22
2022-11-29T07:49:15.963Z,8.21
2022-11-29T07:50:15.951Z,8.20
2022-11-29T07:51:15.938Z,8.20
2022-11-29T07:52:15.886Z,8.20
2022-11-29T07:53:15.917Z,8.21
2022-11-29T07:54:15.859Z,8.18
2022-11-29T07:55:18.882Z,8.18
2022-11-29T07:56:15.835Z,8.20
2022-11-29T07:57:15.835Z,8.20
2022-11-29T07:58:15.835Z,8.20
2022-11-29T07:59:15.850Z,8.20
2022-11-29T08:00:15.831Z,8.22
2022-11-29T08:01:15.842Z,8.20
2022-11-29T08:02:15.873Z,8.21
2022-11-29T08:03:15.755Z,8.21
2022-11-29T08:04:15.754Z,8.20
2022-11-29T08:05:15.734Z,8.20
2022-11-29T08:06:15.757Z,8.20
2022-11-29T08:07:15.750Z,8.20
2022-11-29T08:08:15.730Z,8.18
2022-11-29T08:09:15.671Z,8.18
2022-11-29T08:10:15.682Z,8.18
2022-11-29T08:11:15.670Z,8.17
2022-11-29T08:12:15.643Z,8.18
2022-11-29T08:13:15.622Z,8.18
2022-11-29T08:14:15.656Z,8.20
2022-11-29T08:15:15.621Z,8.21
2022-11-29T08:16:15.700Z,8.20
2022-11-29T08:17:15.573Z,8.21
2022-11-29T08:18:15.571Z,8.22
2022-11-29T08:19:15.567Z,8.22
2022-11-29T08:20:15.579Z,8.22
2022-11-29T08:21:15.513Z,8.24
2022-11-29T08:22:15.545Z,8.21
2022-11-29T08:23:15.493Z,8.21
2022-11-29T08:24:15.498Z,8.21
2022-11-29T08:25:15.511Z,8.22
2022-11-29T08:26:15.500Z,8.22
2022-11-29T08:27:15.467Z,8.24
2022-11-29T08:28:15.448Z,8.27
2022-11-29T08:29:15.442Z,8.27
2022-11-29T08:30:15.448Z,8.29
2022-11-29T08:31:15.431Z,8.29
2022-11-29T08:32:15.407Z,8.29
2022-11-29T08:33:15.380Z,8.31
2022-11-29T08:34:15.369Z,8.31
2022-11-29T08:35:15.376Z,8.29
2022-11-29T08:36:15.368Z,8.32
2022-11-29T08:37:15.345Z,8.36
2022-11-29T08:38:15.308Z,8.34
2022-11-29T08:39:15.321Z,8.32
2022-11-29T08:40:15.337Z,8.32
2022-11-29T08:41:15.288Z,8.34
2022-11-29T08:42:15.292Z,8.32
2022-11-29T08:43:15.236Z,8.34
2022-11-29T08:44:15.265Z,8.34
2022-11-29T08:45:15.314Z,8.36
2022-11-29T08:46:18.534Z,8.37
2022-11-29T08:47:15.245Z,8.39
2022-11-29T08:48:15.225Z,8.37
2022-11-29T08:49:15.212Z,8.39
2022-11-29T08:50:15.197Z,8.37
2022-11-29T08:51:23.009Z,8.36
2022-11-29T08:52:15.142Z,8.37
2022-11-29T08:53:15.112Z,8.39
2022-11-29T08:54:15.111Z,8.37
2022-11-29T08:55:15.128Z,8.40
2022-11-29T08:57:04.583Z,8.40
2022-11-29T08:57:39.769Z,8.42
2022-11-29T08:58:16.091Z,8.42
2022-11-29T08:59:15.042Z,8.45
2022-11-29T09:00:15.039Z,8.43
2022-11-29T09:01:15.046Z,8.43
2022-11-29T09:02:15.056Z,8.45
2022-11-29T09:03:14.980Z,8.46
2022-11-29T09:04:15.025Z,8.46
2022-11-29T09:05:14.999Z,8.47
2022-11-29T09:06:14.996Z,8.49
2022-11-29T09:07:15.018Z,8.49
2022-11-29T09:08:14.954Z,8.49
2022-11-29T09:09:14.952Z,8.49
2022-11-29T09:10:14.928Z,8.49
2022-11-29T09:11:14.916Z,8.49
2022-11-29T09:12:14.914Z,8.49
2022-11-29T09:13:14.870Z,8.49
2022-11-29T09:14:14.886Z,8.49
2022-11-29T09:15:14.868Z,8.47
2022-11-29T09:16:14.964Z,8.45
2022-11-29T09:17:14.811Z,8.45
2022-11-29T09:18:14.810Z,8.43
2022-11-29T09:19:14.828Z,8.42
2022-11-29T09:20:14.783Z,8.42
2022-11-29T09:21:14.769Z,8.42
2022-11-29T09:22:14.750Z,8.40
2022-11-29T09:23:14.729Z,8.42
2022-11-29T09:24:14.766Z,8.40
2022-11-29T09:25:14.697Z,8.39
2022-11-29T09:26:14.770Z,8.37
2022-11-29T09:27:14.677Z,8.37
2022-11-29T09:28:14.698Z,8.37
2022-11-29T09:29:14.735Z,8.39
2022-11-29T09:30:16.997Z,8.36
2022-11-29T09:31:15.718Z,8.37
2022-11-29T09:32:14.653Z,8.37
2022-11-29T09:33:14.628Z,8.37
2022-11-29T09:34:14.642Z,8.36
2022-11-29T09:35:14.607Z,8.36
2022-11-29T09:36:14.620Z,8.34
2022-11-29T09:37:14.554Z,8.32
2022-11-29T09:38:14.594Z,8.31
2022-11-29T09:39:14.567Z,8.34
2022-11-29T09:40:14.564Z,8.31
2022-11-29T09:41:14.541Z,8.32
2022-11-29T09:42:14.523Z,8.29
2022-11-29T09:43:14.511Z,8.32
2022-11-29T09:44:14.473Z,8.32
2022-11-29T09:45:14.451Z,8.34
2022-11-29T09:46:14.507Z,8.37
2022-11-29T09:47:14.434Z,8.37
2022-11-29T09:48:14.449Z,8.37
2022-11-29T09:49:14.394Z,8.37
2022-11-29T09:50:14.411Z,8.39
2022-11-29T09:51:14.379Z,8.39
2022-11-29T09:52:14.419Z,8.42
2022-11-29T09:53:14.371Z,8.43
2022-11-29T09:54:14.350Z,8.43
2022-11-29T09:55:14.312Z,8.43
2022-11-29T09:56:14.342Z,8.40
2022-11-29T09:57:14.300Z,8.39
2022-11-29T09:58:14.291Z,8.39
2022-11-29T09:59:14.262Z,8.42
2022-11-29T10:00:14.296Z,8.42
2022-11-29T10:01:14.331Z,8.45
2022-11-29T10:02:19.726Z,8.43
2022-11-29T10:03:15.219Z,8.45
2022-11-29T10:04:14.245Z,8.45
2022-11-29T10:05:14.200Z,8.43
2022-11-29T10:06:14.240Z,8.43
2022-11-29T10:07:14.179Z,8.45
2022-11-29T10:08:14.177Z,8.45
2022-11-29T10:09:14.145Z,8.46
2022-11-29T10:10:14.156Z,8.46
2022-11-29T10:11:14.134Z,8.45
2022-11-29T10:12:14.136Z,8.45
2022-11-29T10:13:14.125Z,8.45
2022-11-29T10:14:14.108Z,8.47
2022-11-29T10:15:14.094Z,8.47
2022-11-29T10:16:14.208Z,8.46
2022-11-29T10:17:14.036Z,8.47
2022-11-29T10:18:14.073Z,8.47
2022-11-29T10:19:14.007Z,8.45
2022-11-29T10:20:14.051Z,8.46
2022-11-29T10:21:14.023Z,8.46
2022-11-29T10:22:13.986Z,8.49
2022-11-29T10:23:13.968Z,8.50
2022-11-29T10:24:13.979Z,8.49
2022-11-29T10:25:13.962Z,8.49
2022-11-29T10:26:13.945Z,8.47
2022-11-29T10:27:13.947Z,8.46
2022-11-29T10:28:13.923Z,8.45
2022-11-29T10:29:13.930Z,8.47
2022-11-29T10:30:13.912Z,8.47
2022-11-29T10:31:13.950Z,8.46
2022-11-29T10:32:13.861Z,8.47
2022-11-29T10:33:13.840Z,8.47
2022-11-29T10:34:13.834Z,8.49
2022-11-29T10:35:13.831Z,8.47
2022-11-29T10:36:13.823Z,8.46
2022-11-29T10:37:13.960Z,8.45
2022-11-29T10:38:30.169Z,8.46
2022-11-29T10:39:14.911Z,8.45
2022-11-29T10:40:13.786Z,8.42
2022-11-29T10:41:13.742Z,8.40
2022-11-29T10:42:13.733Z,8.40
2022-11-29T10:43:13.729Z,8.43
2022-11-29T10:44:13.718Z,8.45
2022-11-29T10:45:13.685Z,8.46
2022-11-29T10:46:13.760Z,8.43
2022-11-29T10:47:13.683Z,8.45
2022-11-29T10:48:13.660Z,8.40
2022-11-29T10:49:13.658Z,8.42
2022-11-29T10:50:13.632Z,8.40
2022-11-29T10:51:13.655Z,8.42
2022-11-29T10:52:13.612Z,8.45
2022-11-29T10:53:13.592Z,8.46
2022-11-29T10:54:13.620Z,8.46
2022-11-29T10:55:13.618Z,8.46
2022-11-29T10:56:13.578Z,8.45
2022-11-29T10:57:13.558Z,8.45
2022-11-29T10:58:13.560Z,8.46
2022-11-29T10:59:13.572Z,8.47
2022-11-29T11:00:13.606Z,8.49
2022-11-29T11:01:13.531Z,8.49
2022-11-29T11:02:13.469Z,8.52
2022-11-29T11:03:13.486Z,8.52
2022-11-29T11:04:13.469Z,8.54
2022-11-29T11:05:13.468Z,8.54
2022-11-29T11:06:13.460Z,8.54
2022-11-29T11:07:13.399Z,8.55
2022-11-29T11:08:13.402Z,8.55
2022-11-29T11:09:13.405Z,8.55
2022-11-29T11:10:13.417Z,8.57
2022-11-29T11:11:13.378Z,8.57
2022-11-29T11:12:13.437Z,8.58
2022-11-29T11:13:13.338Z,8.60
2022-11-29T11:14:13.403Z,8.61
2022-11-29T11:15:13.291Z,8.61
2022-11-29T11:16:13.336Z,8.60
2022-11-29T11:17:13.327Z,8.60
2022-11-29T11:18:13.293Z,8.58
2022-11-29T11:19:13.295Z,8.58
2022-11-29T11:20:13.300Z,8.60
2022-11-29T11:21:13.219Z,8.58
2022-11-29T11:22:13.250Z,8.57
2022-11-29T11:23:13.207Z,8.54
2022-11-29T11:24:13.242Z,8.54
2022-11-29T11:25:13.166Z,8.55
2022-11-29T11:26:13.192Z,8.55
2022-11-29T11:27:13.193Z,8.57
2022-11-29T11:28:13.147Z,8.57
2022-11-29T11:29:13.164Z,8.58
2022-11-29T11:30:13.131Z,8.61
2022-11-29T11:31:13.176Z,8.61
2022-11-29T11:32:13.094Z,8.60
2022-11-29T11:33:13.100Z,8.61
2022-11-29T11:34:13.097Z,8.60
2022-11-29T11:35:18.309Z,8.58
2022-11-29T11:36:14.047Z,8.57
2022-11-29T11:37:13.033Z,8.60
2022-11-29T11:38:13.033Z,8.58
2022-11-29T11:39:13.035Z,8.61
2022-11-29T11:40:13.031Z,8.61
2022-11-29T11:41:12.999Z,8.61
2022-11-29T11:42:12.962Z,8.63
2022-11-29T11:43:12.933Z,8.64
2022-11-29T11:44:15.342Z,8.64
2022-11-29T11:45:13.948Z,8.64
2022-11-29T11:46:17.803Z,8.67
2022-11-29T11:47:13.920Z,8.67
2022-11-29T11:48:12.897Z,8.67
2022-11-29T11:49:12.955Z,8.65
2022-11-29T11:50:13.132Z,8.65
2022-11-29T11:51:12.840Z,8.68
2022-11-29T11:52:12.833Z,8.68
2022-11-29T11:53:12.812Z,8.68
2022-11-29T11:54:12.827Z,8.70
2022-11-29T11:55:12.818Z,8.71
2022-11-29T11:56:12.793Z,8.73
2022-11-29T11:57:12.796Z,8.71
2022-11-29T11:58:12.811Z,8.68
2022-11-29T11:59:12.777Z,8.68
2022-11-29T12:00:12.799Z,8.67
2022-11-29T12:01:12.742Z,8.68
2022-11-29T12:02:12.762Z,8.65
2022-11-29T12:03:12.791Z,8.67
2022-11-29T12:04:12.702Z,8.67
2022-11-29T12:05:12.663Z,8.68
2022-11-29T12:06:12.713Z,8.67
2022-11-29T12:07:12.636Z,8.65
2022-11-29T12:08:12.715Z,8.67
2022-11-29T12:09:12.656Z,8.68
2022-11-29T12:10:12.709Z,8.67
2022-11-29T12:11:12.616Z,8.68
2022-11-29T12:12:12.624Z,8.70
2022-11-29T12:13:12.558Z,8.73
2022-11-29T12:14:12.585Z,8.75
2022-11-29T12:15:12.573Z,8.76
2022-11-29T12:16:12.576Z,8.78
2022-11-29T12:17:18.458Z,8.78
2022-11-29T12:18:13.527Z,8.80
2022-11-29T12:19:12.519Z,8.82
2022-11-29T12:20:12.573Z,8.82
2022-11-29T12:21:12.544Z,8.85
2022-11-29T12:22:12.443Z,8.85
2022-11-29T12:23:12.448Z,8.80
2022-11-29T12:24:12.454Z,8.78
2022-11-29T12:25:12.667Z,8.75
2022-11-29T12:26:19.188Z,8.75
2022-11-29T12:27:13.423Z,8.78
2022-11-29T12:28:17.095Z,8.78
2022-11-29T12:29:13.418Z,8.80
2022-11-29T12:30:12.382Z,8.80
2022-11-29T12:31:12.373Z,8.82
2022-11-29T12:32:12.350Z,8.80
2022-11-29T12:33:12.341Z,8.80
2022-11-29T12:34:12.330Z,8.79
2022-11-29T12:35:16.077Z,8.80
2022-11-29T12:36:13.329Z,8.78
2022-11-29T12:37:12.306Z,8.78
2022-11-29T12:38:12.318Z,8.73
2022-11-29T12:39:12.280Z,8.75
2022-11-29T12:40:12.211Z,8.75
2022-11-29T12:41:12.221Z,8.75
2022-11-29T12:42:12.219Z,8.73
2022-11-29T12:43:12.285Z,8.76
2022-11-29T12:44:12.199Z,8.76
2022-11-29T12:45:12.188Z,8.71
2022-11-29T12:46:12.221Z,8.71
2022-11-29T12:47:35.252Z,8.73
2022-11-29T12:48:13.132Z,8.70
2022-11-29T12:49:12.235Z,8.70
2022-11-29T12:50:12.106Z,8.70
2022-11-29T12:51:12.104Z,8.70
2022-11-29T12:52:12.087Z,8.70
2022-11-29T12:53:12.076Z,8.70
2022-11-29T12:54:12.080Z,8.70
2022-11-29T12:55:12.081Z,8.71
2022-11-29T12:56:12.011Z,8.71
2022-11-29T12:57:12.000Z,8.71
2022-11-29T12:58:12.064Z,8.71
2022-11-29T12:59:12.770Z,8.71
2022-11-29T13:00:11.986Z,8.71
2022-11-29T13:01:12.093Z,8.71
2022-11-29T13:02:11.939Z,8.68
2022-11-29T13:03:11.997Z,8.68
2022-11-29T13:04:11.923Z,8.68
2022-11-29T13:05:11.911Z,8.68
2022-11-29T13:06:11.915Z,8.67
2022-11-29T13:07:11.928Z,8.68
2022-11-29T13:08:12.800Z,8.68
2022-11-29T13:09:11.905Z,8.68
2022-11-29T13:10:17.669Z,8.68
2022-11-29T13:11:12.982Z,8.70
2022-11-29T13:12:11.842Z,8.71
2022-11-29T13:13:11.798Z,8.70
2022-11-29T13:14:41.385Z,8.68
2022-11-29T13:15:12.808Z,8.68
2022-11-29T13:16:14.720Z,8.71
2022-11-29T13:17:12.802Z,8.71
2022-11-29T13:18:11.765Z,8.73